createdAt,value
2024-04-23T00:00:41.914Z,99.90
2024-04-23T00:03:08.942Z,99.90
2024-04-23T00:05:35.827Z,99.90
2024-04-23T00:08:02.714Z,99.90
2024-04-23T00:10:29.707Z,99.90
2024-04-23T00:12:57.065Z,99.90
2024-04-23T00:15:23.890Z,99.90
2024-04-23T00:17:51.316Z,99.90
2024-04-23T00:20:18.161Z,99.90
2024-04-23T00:22:45.047Z,99.90
2024-04-23T00:25:11.887Z,99.90
2024-04-23T00:27:38.680Z,99.90
2024-04-23T00:30:06.122Z,99.90
2024-04-23T00:32:33.019Z,99.90
2024-04-23T00:35:00.040Z,99.90
2024-04-23T00:37:26.953Z,99.90
2024-04-23T00:39:55.550Z,99.90
2024-04-23T00:42:22.923Z,99.90
2024-04-23T00:44:53.416Z,99.90
2024-04-23T00:47:21.852Z,99.90
2024-04-23T00:49:49.651Z,99.90
2024-04-23T00:52:17.001Z,99.90
2024-04-23T00:54:44.137Z,99.90
2024-04-23T00:57:11.266Z,99.90
2024-04-23T00:59:38.225Z,99.90
2024-04-23T01:02:05.260Z,99.90
2024-04-23T01:04:32.223Z,99.90
2024-04-23T01:06:59.313Z,99.90
2024-04-23T01:09:26.521Z,99.90
2024-04-23T01:11:53.348Z,99.90
2024-04-23T01:14:20.494Z,99.90
2024-04-23T01:16:49.973Z,99.90
2024-04-23T01:19:36.116Z,99.90
2024-04-23T01:22:12.602Z,99.90
2024-04-23T01:25:13.368Z,99.90
2024-04-23T01:27:41.688Z,99.90
2024-04-23T01:30:09.523Z,99.90
2024-04-23T01:32:39.156Z,99.90
2024-04-23T01:35:07.875Z,99.90
2024-04-23T01:37:36.725Z,99.90
2024-04-23T01:40:05.292Z,99.90
2024-04-23T01:42:33.474Z,99.90
2024-04-23T01:45:01.698Z,99.90
2024-04-23T01:47:29.305Z,99.90
2024-04-23T01:49:56.800Z,99.90
2024-04-23T01:52:23.762Z,99.90
2024-04-23T01:54:50.995Z,99.90
2024-04-23T01:57:18.341Z,99.90
2024-04-23T01:59:49.743Z,99.90
2024-04-23T02:02:17.853Z,99.90
2024-04-23T02:04:45.728Z,99.90
2024-04-23T02:07:14.438Z,99.90
2024-04-23T02:09:42.834Z,99.90
2024-04-23T02:12:16.228Z,99.90
2024-04-23T02:14:43.482Z,99.90
2024-04-23T02:17:10.830Z,99.90
2024-04-23T02:19:37.874Z,99.90
2024-04-23T02:22:04.838Z,99.90
2024-04-23T02:24:31.663Z,99.90
2024-04-23T02:26:58.523Z,99.90
2024-04-23T02:29:25.352Z,99.90
2024-04-23T02:31:52.306Z,99.90
2024-04-23T02:34:19.134Z,99.90
2024-04-23T02:36:45.939Z,99.90
2024-04-23T02:39:13.038Z,99.90
2024-04-23T02:41:50.315Z,99.90
2024-04-23T02:44:17.336Z,99.90
2024-04-23T02:46:44.258Z,99.90
2024-04-23T02:49:11.124Z,99.90
2024-04-23T02:51:51.212Z,99.90
2024-04-23T02:54:18.048Z,99.90
2024-04-23T02:56:46.142Z,99.90
2024-04-23T02:59:12.955Z,99.90
2024-04-23T03:01:39.835Z,99.90
2024-04-23T03:04:06.813Z,99.90
2024-04-23T03:06:33.759Z,99.90
2024-04-23T03:09:00.583Z,99.90
2024-04-23T03:11:27.418Z,99.90
2024-04-23T03:13:54.303Z,99.90
2024-04-23T03:16:21.481Z,99.90
2024-04-23T03:18:48.474Z,99.90
2024-04-23T03:21:15.290Z,99.90
2024-04-23T03:23:42.110Z,99.90
2024-04-23T03:26:08.969Z,99.90
2024-04-23T03:28:35.812Z,99.90
2024-04-23T03:31:02.856Z,99.90
2024-04-23T03:33:29.711Z,99.90
2024-04-23T03:35:56.643Z,99.90
2024-04-23T03:38:23.456Z,99.90
2024-04-23T03:40:50.498Z,99.90
2024-04-23T03:43:17.332Z,99.90
2024-04-23T03:45:44.167Z,99.90
2024-04-23T03:48:11.706Z,99.90
2024-04-23T03:50:38.601Z,99.90
2024-04-23T03:53:05.932Z,99.90
2024-04-23T03:55:32.804Z,99.90
2024-04-23T03:58:00.514Z,99.90
2024-04-23T04:00:28.785Z,99.90
2024-04-23T04:03:14.324Z,99.90
2024-04-23T04:05:59.682Z,99.90
2024-04-23T04:08:26.512Z,99.90
2024-04-23T04:10:53.360Z,99.90
2024-04-23T04:13:23.914Z,99.90
2024-04-23T04:15:51.748Z,99.90
2024-04-23T04:18:19.472Z,99.90
2024-04-23T04:20:46.732Z,99.90
2024-04-23T04:23:13.943Z,99.90
2024-04-23T04:25:40.982Z,99.90
2024-04-23T04:28:07.869Z,99.90
2024-04-23T04:30:34.846Z,99.90
2024-04-23T04:33:02.056Z,99.90
2024-04-23T04:35:28.965Z,99.90
2024-04-23T04:37:56.527Z,99.90
2024-04-23T04:40:23.455Z,99.90
2024-04-23T04:42:52.207Z,99.90
2024-04-23T04:45:19.195Z,99.90
2024-04-23T04:47:50.216Z,99.90
2024-04-23T04:50:20.685Z,99.90
2024-04-23T04:52:47.743Z,99.90
2024-04-23T04:55:15.544Z,99.90
2024-04-23T04:57:42.458Z,99.90
2024-04-23T05:00:09.760Z,99.90
2024-04-23T05:02:36.600Z,99.90
2024-04-23T05:05:03.630Z,99.90
2024-04-23T05:07:30.509Z,99.90
2024-04-23T05:09:57.563Z,99.90
2024-04-23T05:12:24.472Z,99.90
2024-04-23T05:14:53.084Z,99.90
2024-04-23T05:17:19.930Z,99.90
2024-04-23T05:19:46.883Z,99.90
2024-04-23T05:22:14.250Z,99.90
2024-04-23T05:24:41.089Z,99.90
2024-04-23T05:27:07.925Z,99.90
2024-04-23T05:29:34.774Z,99.90
2024-04-23T05:32:20.970Z,99.90
2024-04-23T05:34:48.308Z,99.90
2024-04-23T05:37:15.140Z,99.90
2024-04-23T05:39:41.928Z,99.90
2024-04-23T05:42:08.783Z,99.90
2024-04-23T05:44:35.735Z,99.90
2024-04-23T05:47:02.625Z,99.90
2024-04-23T05:50:07.328Z,99.90
2024-04-23T05:53:30.529Z,99.90
2024-04-23T05:56:16.034Z,99.90
2024-04-23T05:58:43.254Z,99.90
2024-04-23T06:01:10.273Z,99.30
2024-04-23T06:03:37.113Z,99.40
2024-04-23T06:06:04.111Z,98.30
2024-04-23T06:08:31.102Z,95.80
2024-04-23T06:10:58.010Z,95.50
2024-04-23T06:13:24.962Z,93.70
2024-04-23T06:15:51.776Z,93.80
2024-04-23T06:18:23.785Z,92.20
2024-04-23T06:20:53.912Z,90.90
2024-04-23T06:23:28.448Z,88.80
2024-04-23T06:25:59.012Z,88.00
2024-04-23T06:28:25.901Z,87.60
2024-04-23T06:30:52.711Z,86.30
2024-04-23T06:33:21.100Z,84.70
2024-04-23T06:35:48.001Z,83.80
2024-04-23T06:38:14.866Z,83.90
2024-04-23T06:40:41.703Z,81.00
2024-04-23T06:43:10.173Z,80.50
2024-04-23T06:45:37.790Z,79.90
2024-04-23T06:48:05.140Z,79.30
2024-04-23T06:50:32.019Z,79.30
2024-04-23T06:53:00.224Z,80.10
2024-04-23T06:55:27.228Z,79.20
2024-04-23T06:57:54.410Z,80.00
2024-04-23T07:00:21.245Z,77.50
2024-04-23T07:02:48.087Z,78.10
2024-04-23T07:05:15.166Z,78.30
2024-04-23T07:07:42.064Z,77.50
2024-04-23T07:10:09.195Z,77.20
2024-04-23T07:12:36.128Z,77.20
2024-04-23T07:15:03.042Z,77.00
2024-04-23T07:17:30.169Z,77.40
2024-04-23T07:19:57.140Z,75.10
2024-04-23T07:22:24.016Z,77.00
2024-04-23T07:24:50.861Z,77.90
2024-04-23T07:27:17.685Z,75.80
2024-04-23T07:29:44.636Z,74.00
2024-04-23T07:32:14.364Z,75.00
2024-04-23T07:34:41.628Z,75.00
2024-04-23T07:37:08.573Z,74.80
2024-04-23T07:39:35.435Z,75.10
2024-04-23T07:42:02.276Z,72.30
2024-04-23T07:44:29.250Z,71.40
2024-04-23T07:46:56.223Z,70.70
2024-04-23T07:49:23.060Z,68.40
2024-04-23T07:51:49.945Z,68.40
2024-04-23T07:54:17.458Z,67.20
2024-04-23T07:56:47.144Z,67.00
2024-04-23T07:59:14.225Z,66.70
2024-04-23T08:01:41.259Z,65.40
2024-04-23T08:04:08.197Z,65.00
2024-04-23T08:06:36.220Z,66.10
2024-04-23T08:09:03.070Z,65.60
2024-04-23T08:11:30.354Z,63.00
2024-04-23T08:13:57.315Z,64.90
2024-04-23T08:16:24.251Z,64.50
2024-04-23T08:18:51.239Z,65.40
2024-04-23T08:21:18.181Z,64.50
2024-04-23T08:23:45.064Z,65.90
2024-04-23T08:26:18.907Z,64.80
2024-04-23T08:28:47.865Z,65.00
2024-04-23T08:31:14.845Z,63.00
2024-04-23T08:33:41.766Z,65.70
2024-04-23T08:36:08.752Z,64.60
2024-04-23T08:38:35.595Z,65.80
2024-04-23T08:41:02.921Z,63.30
2024-04-23T08:43:37.937Z,63.00
2024-04-23T08:46:05.932Z,62.40
2024-04-23T08:48:35.697Z,63.50
2024-04-23T08:51:04.370Z,63.70
2024-04-23T08:53:33.619Z,63.60
2024-04-23T08:56:06.252Z,64.10
2024-04-23T08:58:38.611Z,64.70
2024-04-23T09:01:09.755Z,63.40
2024-04-23T09:03:47.796Z,62.60
2024-04-23T09:06:14.838Z,63.60
2024-04-23T09:08:42.270Z,64.30
2024-04-23T09:11:10.214Z,65.20
2024-04-23T09:13:37.428Z,65.00
2024-04-23T09:16:04.478Z,66.40
2024-04-23T09:18:32.643Z,64.70
2024-04-23T09:21:02.686Z,64.30
2024-04-23T09:23:30.202Z,64.80
2024-04-23T09:26:00.870Z,64.50
2024-04-23T09:28:27.942Z,65.50
2024-04-23T09:30:55.017Z,65.90
2024-04-23T09:33:28.187Z,65.70
2024-04-23T09:36:04.972Z,65.60
2024-04-23T09:38:39.628Z,64.70
2024-04-23T09:41:07.867Z,64.00
2024-04-23T09:43:35.202Z,64.50
2024-04-23T09:46:06.227Z,64.30
2024-04-23T09:48:35.021Z,63.40
2024-04-23T09:51:07.270Z,62.80
2024-04-23T09:53:39.221Z,62.50
2024-04-23T09:56:14.277Z,63.30
2024-04-23T09:58:41.606Z,64.80
2024-04-23T10:01:09.555Z,64.00
2024-04-23T10:03:43.009Z,63.90
2024-04-23T10:06:14.356Z,63.60
2024-04-23T10:08:54.803Z,65.20
2024-04-23T10:11:30.519Z,63.00
2024-04-23T10:14:08.034Z,64.00
2024-04-23T10:16:44.696Z,64.40
2024-04-23T10:19:14.151Z,61.20
2024-04-23T10:21:44.079Z,62.00
2024-04-23T10:24:11.623Z,62.30
2024-04-23T10:26:43.850Z,62.40
2024-04-23T10:29:13.174Z,63.00
2024-04-23T10:31:42.636Z,61.80
2024-04-23T10:34:09.940Z,61.40
2024-04-23T10:36:42.231Z,62.90
2024-04-23T10:39:12.717Z,60.80
2024-04-23T10:41:40.081Z,62.00
2024-04-23T10:44:10.866Z,63.60
2024-04-23T10:46:39.230Z,63.80
2024-04-23T10:49:17.137Z,63.60
2024-04-23T10:51:45.800Z,62.40
2024-04-23T10:54:17.622Z,64.20
2024-04-23T10:56:44.513Z,64.70
2024-04-23T10:59:18.060Z,64.80
2024-04-23T11:01:52.109Z,64.50
2024-04-23T11:04:40.754Z,66.20
2024-04-23T11:07:10.213Z,66.90
2024-04-23T11:09:43.743Z,64.30
2024-04-23T11:12:21.075Z,64.20
2024-04-23T11:14:49.004Z,64.60
2024-04-23T11:17:17.942Z,64.40
2024-04-23T11:19:49.545Z,65.00
2024-04-23T11:22:18.033Z,65.20
2024-04-23T11:24:56.497Z,64.30
2024-04-23T11:27:27.251Z,65.20
2024-04-23T11:29:54.489Z,64.60
2024-04-23T11:32:21.711Z,64.50
2024-04-23T11:34:49.461Z,64.90
2024-04-23T11:37:28.818Z,65.30
2024-04-23T11:40:00.383Z,64.90
2024-04-23T11:42:31.985Z,64.50
2024-04-23T11:44:59.371Z,65.00
2024-04-23T11:47:28.926Z,65.10
2024-04-23T11:49:57.544Z,65.90
2024-04-23T11:52:24.947Z,66.10
2024-04-23T11:54:55.250Z,64.90
2024-04-23T11:57:22.901Z,65.90
2024-04-23T11:59:53.436Z,64.60
2024-04-23T12:02:20.689Z,65.10
2024-04-23T12:04:49.739Z,64.90
2024-04-23T12:07:17.143Z,64.70
2024-04-23T12:09:48.572Z,65.60
2024-04-23T12:12:20.066Z,65.60
2024-04-23T12:14:47.392Z,67.00
2024-04-23T12:17:14.525Z,68.10
2024-04-23T12:19:43.369Z,67.20
2024-04-23T12:22:17.405Z,66.50
2024-04-23T12:24:44.943Z,66.70
2024-04-23T12:27:14.524Z,67.30
2024-04-23T12:29:42.894Z,66.10
2024-04-23T12:32:09.877Z,66.50
2024-04-23T12:34:37.036Z,67.30
2024-04-23T12:37:04.359Z,67.40
2024-04-23T12:39:31.787Z,67.70
2024-04-23T12:42:14.560Z,66.00
2024-04-23T12:44:41.558Z,66.30
2024-04-23T12:47:10.767Z,67.70
2024-04-23T12:49:38.669Z,66.30
2024-04-23T12:52:05.790Z,67.60
2024-04-23T12:54:34.657Z,68.20
2024-04-23T12:57:02.779Z,68.00
2024-04-23T12:59:31.393Z,67.20
2024-04-23T13:02:00.475Z,67.20
2024-04-23T13:04:27.678Z,66.00
2024-04-23T13:06:54.636Z,65.40
2024-04-23T13:09:21.481Z,67.10
2024-04-23T13:11:48.406Z,65.40
2024-04-23T13:14:15.345Z,66.00
2024-04-23T13:16:48.633Z,64.60
2024-04-23T13:19:17.392Z,65.90
2024-04-23T13:21:44.225Z,65.40
2024-04-23T13:24:12.025Z,65.00
2024-04-23T13:26:38.887Z,66.20
2024-04-23T13:29:06.570Z,65.50
2024-04-23T13:31:33.470Z,64.90
2024-04-23T13:34:00.320Z,66.00
2024-04-23T13:36:27.415Z,65.30
2024-04-23T13:38:54.272Z,65.70
2024-04-23T13:41:23.355Z,64.90
2024-04-23T13:43:50.405Z,64.50
2024-04-23T13:46:17.337Z,65.40
2024-04-23T13:48:44.391Z,64.10
2024-04-23T13:51:11.457Z,63.70
2024-04-23T13:53:38.348Z,65.20
2024-04-23T13:56:11.299Z,64.70
2024-04-23T13:58:38.492Z,64.40
2024-04-23T14:01:09.658Z,63.00
2024-04-23T14:03:37.141Z,62.70
2024-04-23T14:06:08.409Z,64.10
2024-04-23T14:08:36.246Z,65.10
2024-04-23T14:11:04.342Z,65.00
2024-04-23T14:13:37.751Z,64.80
2024-04-23T14:16:11.279Z,66.30
2024-04-23T14:18:38.730Z,67.10
2024-04-23T14:21:05.891Z,67.50
2024-04-23T14:23:33.554Z,64.90
2024-04-23T14:26:00.595Z,65.50
2024-04-23T14:28:31.149Z,65.50
2024-04-23T14:31:03.932Z,65.10
2024-04-23T14:33:31.756Z,65.30
2024-04-23T14:36:02.944Z,66.00
2024-04-23T14:38:31.898Z,66.40
2024-04-23T14:41:03.480Z,66.80
2024-04-23T14:43:30.975Z,67.10
2024-04-23T14:45:58.021Z,68.10
2024-04-23T14:48:25.984Z,67.60
2024-04-23T14:50:53.036Z,66.80
2024-04-23T14:53:21.935Z,66.90
2024-04-23T14:56:02.505Z,68.00
2024-04-23T14:58:31.046Z,67.10
2024-04-23T15:00:58.535Z,67.50
2024-04-23T15:03:26.250Z,67.40
2024-04-23T15:05:53.165Z,67.50
2024-04-23T15:08:20.088Z,67.70
2024-04-23T15:10:51.345Z,67.10
2024-04-23T15:13:18.931Z,67.20
2024-04-23T15:15:46.415Z,68.00
2024-04-23T15:18:14.361Z,67.60
2024-04-23T15:20:42.561Z,68.20
2024-04-23T15:23:09.576Z,68.30
2024-04-23T15:25:36.558Z,67.50
2024-04-23T15:28:03.647Z,67.60
2024-04-23T15:30:30.564Z,68.80
2024-04-23T15:32:57.981Z,67.90
2024-04-23T15:35:25.286Z,68.10
2024-04-23T15:37:52.440Z,68.30
2024-04-23T15:40:19.441Z,68.20
2024-04-23T15:42:46.347Z,68.00
2024-04-23T15:45:14.211Z,68.30
2024-04-23T15:47:41.542Z,68.50
2024-04-23T15:50:08.971Z,69.40
2024-04-23T15:52:35.906Z,68.70
2024-04-23T15:55:02.821Z,68.30
2024-04-23T15:57:29.950Z,68.20
2024-04-23T15:59:56.756Z,68.90
2024-04-23T16:02:25.310Z,70.10
2024-04-23T16:04:52.328Z,70.30
2024-04-23T16:07:22.297Z,70.00
2024-04-23T16:09:49.928Z,70.40
2024-04-23T16:12:17.012Z,71.10
2024-04-23T16:14:44.527Z,71.40
2024-04-23T16:17:11.612Z,71.30
2024-04-23T16:19:38.893Z,71.90
2024-04-23T16:22:06.254Z,71.60
2024-04-23T16:24:33.092Z,71.90
2024-04-23T16:27:02.572Z,72.00
2024-04-23T16:29:30.512Z,70.50
2024-04-23T16:31:57.626Z,70.90
2024-04-23T16:34:25.070Z,70.20
2024-04-23T16:36:52.166Z,71.60
2024-04-23T16:39:20.458Z,71.30
2024-04-23T16:41:48.326Z,71.10
2024-04-23T16:44:15.254Z,71.40
2024-04-23T16:46:42.194Z,71.40
2024-04-23T16:49:09.208Z,71.90
2024-04-23T16:51:36.163Z,71.20
2024-04-23T16:54:03.930Z,71.00
2024-04-23T16:56:30.872Z,71.60
2024-04-23T16:58:57.720Z,71.50
2024-04-23T17:01:24.556Z,72.30
2024-04-23T17:03:51.523Z,71.70
2024-04-23T17:06:18.393Z,71.90
2024-04-23T17:08:45.695Z,70.70
2024-04-23T17:11:12.671Z,71.00
2024-04-23T17:13:39.589Z,71.00
2024-04-23T17:16:17.598Z,71.40
2024-04-23T17:18:44.639Z,71.00
2024-04-23T17:21:20.854Z,71.00
2024-04-23T17:23:47.849Z,70.70
2024-04-23T17:26:14.976Z,71.40
2024-04-23T17:28:42.026Z,71.20
2024-04-23T17:31:09.113Z,71.00
2024-04-23T17:33:36.228Z,71.80
2024-04-23T17:36:03.552Z,71.50
2024-04-23T17:38:30.520Z,71.90
2024-04-23T17:40:57.468Z,72.00
2024-04-23T17:43:24.416Z,72.40
2024-04-23T17:45:51.278Z,72.50
2024-04-23T17:48:18.318Z,71.30
2024-04-23T17:50:45.252Z,71.10
2024-04-23T17:53:12.174Z,71.10
2024-04-23T17:55:40.582Z,71.70
2024-04-23T17:58:07.655Z,71.80
2024-04-23T18:00:34.784Z,72.70
2024-04-23T18:03:01.744Z,73.00
2024-04-23T18:05:28.606Z,73.60
2024-04-23T18:07:55.504Z,74.00
2024-04-23T18:10:22.414Z,73.50
2024-04-23T18:12:49.392Z,74.30
2024-04-23T18:15:16.240Z,73.90
2024-04-23T18:17:43.165Z,74.10
2024-04-23T18:20:10.477Z,74.00
2024-04-23T18:22:37.395Z,75.50
2024-04-23T18:25:04.786Z,75.20
2024-04-23T18:27:31.759Z,76.00
2024-04-23T18:29:58.582Z,76.40
2024-04-23T18:32:26.070Z,76.40
2024-04-23T18:34:52.965Z,76.00
2024-04-23T18:37:19.812Z,76.60
2024-04-23T18:39:46.765Z,76.70
2024-04-23T18:42:13.778Z,76.60
2024-04-23T18:44:40.921Z,76.30
2024-04-23T18:47:07.880Z,76.80
2024-04-23T18:49:34.740Z,77.00
2024-04-23T18:52:01.642Z,77.40
2024-04-23T18:54:28.576Z,77.30
2024-04-23T18:56:55.878Z,79.50
2024-04-23T18:59:23.025Z,79.90
2024-04-23T19:01:50.128Z,80.50
2024-04-23T19:04:17.084Z,80.70
2024-04-23T19:06:44.232Z,81.20
2024-04-23T19:09:11.063Z,81.00
2024-04-23T19:11:38.179Z,80.00
2024-04-23T19:14:14.356Z,81.10
2024-04-23T19:16:44.873Z,82.90
2024-04-23T19:19:12.431Z,85.50
2024-04-23T19:21:39.366Z,87.30
2024-04-23T19:24:06.875Z,86.70
2024-04-23T19:26:33.742Z,87.40
2024-04-23T19:29:00.793Z,88.00
2024-04-23T19:31:27.795Z,87.10
2024-04-23T19:33:54.787Z,87.50
2024-04-23T19:36:23.103Z,88.00
2024-04-23T19:38:49.998Z,87.60
2024-04-23T19:41:17.505Z,87.80
2024-04-23T19:43:52.186Z,87.70
2024-04-23T19:46:24.318Z,87.40
2024-04-23T19:48:52.039Z,86.30
2024-04-23T19:51:22.411Z,86.00
2024-04-23T19:53:50.309Z,87.70
2024-04-23T19:56:27.780Z,88.10
2024-04-23T19:58:57.428Z,88.30
2024-04-23T20:01:24.957Z,88.50
2024-04-23T20:03:52.007Z,87.80
2024-04-23T20:06:18.955Z,88.00
2024-04-23T20:08:45.851Z,86.30
2024-04-23T20:11:12.808Z,87.70
2024-04-23T20:13:40.888Z,89.00
2024-04-23T20:16:07.798Z,89.90
2024-04-23T20:18:34.815Z,89.40
2024-04-23T20:21:01.804Z,89.80
2024-04-23T20:23:28.900Z,89.80
2024-04-23T20:25:55.910Z,90.60
2024-04-23T20:28:23.559Z,90.20
2024-04-23T20:30:50.578Z,91.10
2024-04-23T20:33:17.510Z,88.10
2024-04-23T20:35:44.421Z,86.40
2024-04-23T20:38:11.295Z,86.00
2024-04-23T20:40:39.774Z,86.60
2024-04-23T20:43:06.649Z,87.00
2024-04-23T20:45:33.461Z,86.50
2024-04-23T20:48:00.509Z,86.60
2024-04-23T20:50:27.598Z,86.00
2024-04-23T20:52:54.460Z,86.60
2024-04-23T20:55:21.360Z,87.20
2024-04-23T20:57:48.183Z,86.50
2024-04-23T21:00:15.148Z,87.60
2024-04-23T21:02:42.023Z,88.20
2024-04-23T21:05:08.887Z,87.60
2024-04-23T21:07:37.878Z,87.30
2024-04-23T21:10:06.043Z,86.00
2024-04-23T21:12:33.372Z,86.40
2024-04-23T21:15:00.267Z,86.10
2024-04-23T21:17:27.358Z,84.40
2024-04-23T21:19:54.273Z,84.80
2024-04-23T21:22:21.173Z,85.10
2024-04-23T21:24:48.038Z,84.80
2024-04-23T21:27:15.484Z,84.70
2024-04-23T21:29:42.965Z,84.00
2024-04-23T21:32:09.880Z,84.30
2024-04-23T21:34:36.723Z,84.70
2024-04-23T21:37:03.574Z,85.00
2024-04-23T21:39:30.602Z,85.40
2024-04-23T21:41:58.549Z,85.20
2024-04-23T21:44:25.485Z,85.50
2024-04-23T21:46:52.657Z,85.30
2024-04-23T21:49:19.492Z,86.00
2024-04-23T21:52:09.380Z,86.10
2024-04-23T21:54:33.104Z,86.70
2024-04-23T21:57:00.262Z,87.40
2024-04-23T21:59:27.138Z,88.30
2024-04-23T22:01:53.983Z,89.70
2024-04-23T22:04:20.832Z,92.70
2024-04-23T22:06:47.659Z,94.30
2024-04-23T22:09:14.493Z,95.30
2024-04-23T22:11:41.447Z,97.00
2024-04-23T22:14:08.556Z,98.50
2024-04-23T22:16:35.505Z,99.90
2024-04-23T22:19:02.334Z,99.90
2024-04-23T22:21:29.916Z,99.90
2024-04-23T22:23:56.725Z,99.90
2024-04-23T22:26:24.187Z,99.90
2024-04-23T22:28:51.149Z,99.90
2024-04-23T22:31:17.993Z,99.90
2024-04-23T22:33:44.927Z,99.90
2024-04-23T22:36:11.909Z,99.90
2024-04-23T22:38:38.776Z,99.90
2024-04-23T22:41:05.653Z,99.90
2024-04-23T22:43:32.566Z,99.90
2024-04-23T22:45:59.732Z,99.90
2024-04-23T22:48:26.741Z,99.90
2024-04-23T22:50:53.663Z,99.90
2024-04-23T22:53:20.555Z,99.90
2024-04-23T22:55:47.452Z,99.90
2024-04-23T22:58:14.615Z,99.90
2024-04-23T23:00:41.527Z,99.90
2024-04-23T23:03:08.420Z,99.90
2024-04-23T23:05:36.347Z,99.90
2024-04-23T23:08:03.275Z,99.90
2024-04-23T23:10:30.134Z,99.90
2024-04-23T23:12:57.003Z,99.90
2024-04-23T23:15:23.839Z,99.90
2024-04-23T23:17:50.777Z,99.90
2024-04-23T23:20:17.726Z,99.90
2024-04-23T23:22:46.693Z,99.90
2024-04-23T23:25:15.380Z,99.90
2024-04-23T23:27:42.223Z,99.90
2024-04-23T23:30:09.319Z,99.90
2024-04-23T23:32:36.549Z,99.90
2024-04-23T23:35:03.536Z,99.90
2024-04-23T23:37:30.400Z,99.90
2024-04-23T23:39:57.221Z,99.90
2024-04-23T23:42:24.038Z,99.90
2024-04-23T23:44:50.875Z,99.90
2024-04-23T23:47:17.768Z,99.90
2024-04-23T23:49:44.734Z,99.90
2024-04-23T23:52:13.050Z,99.90
2024-04-23T23:54:39.909Z,99.90
2024-04-23T23:57:06.755Z,99.90
2024-04-23T23:59:33.569Z,99.90
